Time,TemperatureF,DewpointF,PressureIn,WindDirection,WindDirectionDegrees,WindSpeedMPH,WindSpeedGustMPH,Humidity,HourlyPrecipIn,Conditions,Clouds,dailyrainin,SoftwareType,DateUTC
2013-07-07 00:01:00,78.0,62.0,-100.00,South,180,17.0,-999.0,58,-99.99,,,-99.99,,2013-07-07 05:01:00,
2013-07-07 00:11:00,78.0,62.0,-100.00,South,180,17.0,-999.0,58,-99.99,,,-99.99,,2013-07-07 05:11:00,
2013-07-07 00:21:00,77.0,63.0,-100.00,South,180,17.0,-999.0,60,-99.99,,,-99.99,,2013-07-07 05:21:00,
2013-07-07 00:31:00,77.0,63.0,-100.00,South,180,17.0,-999.0,61,-99.99,,,-99.99,,2013-07-07 05:31:00,
2013-07-07 00:41:00,77.0,63.0,-100.00,South,180,17.0,-999.0,61,-99.99,,,-99.99,,2013-07-07 05:41:00,
2013-07-07 00:51:00,77.0,63.0,-100.00,South,180,17.0,-999.0,61,-99.99,,,-99.99,,2013-07-07 05:51:00,
2013-07-07 01:01:00,77.0,63.0,-100.00,South,180,16.0,-999.0,61,-99.99,,,-99.99,,2013-07-07 06:01:00,
2013-07-07 01:11:00,77.0,63.0,-100.00,South,180,16.0,-999.0,61,-99.99,,,-99.99,,2013-07-07 06:11:00,
2013-07-07 01:21:00,77.0,63.0,-100.00,South,180,16.0,-999.0,61,-99.99,,,-99.99,,2013-07-07 06:21:00,
2013-07-07 01:32:00,77.0,63.0,-100.00,South,180,15.0,-999.0,61,-99.99,,,-99.99,,2013-07-07 06:32:00,
2013-07-07 01:43:00,77.0,63.0,-100.00,South,180,15.0,-999.0,61,-99.99,,,-99.99,,2013-07-07 06:43:00,
2013-07-07 01:52:00,78.0,63.0,-100.00,South,180,16.0,-999.0,61,-99.99,,,-99.99,,2013-07-07 06:52:00,
2013-07-07 02:01:00,78.0,64.0,-100.00,South,180,15.0,-999.0,62,-99.99,,,-99.99,,2013-07-07 07:01:00,
2013-07-07 02:11:00,78.0,64.0,-100.00,South,180,15.0,-999.0,62,-99.99,,,-99.99,,2013-07-07 07:11:00,
2013-07-07 02:22:00,78.0,64.0,-100.00,South,180,15.0,-999.0,62,-99.99,,,-99.99,,2013-07-07 07:22:00,
2013-07-07 02:33:00,78.0,65.0,-100.00,South,180,19.0,-999.0,63,-99.99,,,-99.99,,2013-07-07 07:33:00,
2013-07-07 02:44:00,78.0,65.0,-100.00,South,180,19.0,-999.0,63,-99.99,,,-99.99,,2013-07-07 07:44:00,
2013-07-07 02:53:00,78.0,65.0,-100.00,South,180,16.0,-999.0,63,-99.99,,,-99.99,,2013-07-07 07:53:00,
2013-07-07 03:02:00,78.0,65.0,-100.00,South,180,16.0,-999.0,63,-99.99,,,-99.99,,2013-07-07 08:02:00,
2013-07-07 03:12:00,78.0,65.0,-100.00,South,180,16.0,-999.0,63,-99.99,,,-99.99,,2013-07-07 08:12:00,
2013-07-07 03:22:00,78.0,65.0,-100.00,South,180,17.0,-999.0,64,-99.99,,,-99.99,,2013-07-07 08:22:00,
2013-07-07 03:34:00,77.0,65.0,-100.00,SSW,203,15.0,-999.0,65,-99.99,,,-99.99,,2013-07-07 08:34:00,
2013-07-07 03:44:00,77.0,65.0,-100.00,SSW,203,15.0,-999.0,65,-99.99,,,-99.99,,2013-07-07 08:44:00,
2013-07-07 03:53:00,77.0,65.0,-100.00,South,180,15.0,-999.0,66,-99.99,,,-99.99,,2013-07-07 08:53:00,
2013-07-07 04:02:00,77.0,65.0,-100.00,South,180,15.0,-999.0,66,-99.99,,,-99.99,,2013-07-07 09:02:00,
2013-07-07 04:12:00,77.0,65.0,-100.00,South,180,15.0,-999.0,66,-99.99,,,-99.99,,2013-07-07 09:12:00,
2013-07-07 04:22:00,76.0,65.0,-100.00,South,180,16.0,-999.0,67,-99.99,,,-99.99,,2013-07-07 09:22:00,
2013-07-07 04:34:00,76.0,65.0,-100.00,South,180,15.0,-999.0,67,-99.99,,,-99.99,,2013-07-07 09:34:00,
2013-07-07 04:43:00,76.0,65.0,-100.00,South,180,15.0,-999.0,67,-99.99,,,-99.99,,2013-07-07 09:43:00,
2013-07-07 04:53:00,76.0,65.0,-100.00,South,180,14.0,-999.0,68,-99.99,,,-99.99,,2013-07-07 09:53:00,
2013-07-07 05:03:00,76.0,65.0,-100.00,South,180,17.0,-999.0,68,-99.99,,,-99.99,,2013-07-07 10:03:00,
2013-07-07 05:12:00,76.0,65.0,-100.00,South,180,17.0,-999.0,68,-99.99,,,-99.99,,2013-07-07 10:12:00,
2013-07-07 05:22:00,76.0,65.0,-100.00,South,180,19.0,-999.0,68,-99.99,,,-99.99,,2013-07-07 10:22:00,
2013-07-07 05:32:00,76.0,65.0,-100.00,South,180,20.0,-999.0,68,-99.99,,,-99.99,,2013-07-07 10:32:00,
2013-07-07 05:43:00,76.0,65.0,-100.00,South,180,20.0,-999.0,68,-99.99,,,-99.99,,2013-07-07 10:43:00,
2013-07-07 05:52:00,76.0,65.0,-100.00,South,180,21.0,-999.0,68,-99.99,,,-99.99,,2013-07-07 10:52:00,
2013-07-07 06:02:00,76.0,65.0,-100.00,South,180,18.0,-999.0,68,-99.99,,,-99.99,,2013-07-07 11:02:00,
2013-07-07 06:11:00,76.0,65.0,-100.00,South,180,18.0,-999.0,68,-99.99,,,-99.99,,2013-07-07 11:11:00,
2013-07-07 06:23:00,76.0,64.0,-100.00,South,180,18.0,-999.0,68,-99.99,,,-99.99,,2013-07-07 11:23:00,
2013-07-07 06:34:00,76.0,65.0,-100.00,South,180,18.0,-999.0,69,-99.99,,,-99.99,,2013-07-07 11:34:00,
2013-07-07 06:43:00,76.0,65.0,-100.00,South,180,18.0,-999.0,69,-99.99,,,-99.99,,2013-07-07 11:43:00,
2013-07-07 06:53:00,75.0,65.0,-100.00,South,180,19.0,-999.0,69,-99.99,,,-99.99,,2013-07-07 11:53:00,
2013-07-07 07:02:00,75.0,65.0,-100.00,South,180,20.0,-999.0,70,-99.99,,,-99.99,,2013-07-07 12:02:00,
2013-07-07 07:12:00,75.0,65.0,-100.00,South,180,20.0,-999.0,70,-99.99,,,-99.99,,2013-07-07 12:12:00,
2013-07-07 07:22:00,75.0,65.0,-100.00,South,180,19.0,-999.0,71,-99.99,,,-99.99,,2013-07-07 12:22:00,
2013-07-07 07:34:00,76.0,66.0,-100.00,South,180,17.0,-999.0,71,-99.99,,,-99.99,,2013-07-07 12:34:00,
2013-07-07 07:43:00,76.0,66.0,-100.00,South,180,17.0,-999.0,71,-99.99,,,-99.99,,2013-07-07 12:43:00,
2013-07-07 07:52:00,76.0,66.0,-100.00,South,180,17.0,-999.0,71,-99.99,,,-99.99,,2013-07-07 12:52:00,
2013-07-07 08:02:00,77.0,67.0,-100.00,South,180,17.0,-999.0,70,-99.99,,,-99.99,,2013-07-07 13:02:00,
2013-07-07 08:11:00,77.0,67.0,-100.00,South,180,17.0,-999.0,70,-99.99,,,-99.99,,2013-07-07 13:11:00,
2013-07-07 08:22:00,77.0,67.0,-100.00,SSW,203,19.0,-999.0,70,-99.99,,,-99.99,,2013-07-07 13:22:00,
2013-07-07 08:34:00,77.0,67.0,-100.00,SSW,203,15.0,-999.0,70,-99.99,,,-99.99,,2013-07-07 13:34:00,
2013-07-07 08:43:00,77.0,67.0,-100.00,SSW,203,15.0,-999.0,70,-99.99,,,-99.99,,2013-07-07 13:43:00,
2013-07-07 08:52:00,77.0,67.0,-100.00,SSW,203,17.0,-999.0,70,-99.99,,,-99.99,,2013-07-07 13:52:00,
2013-07-07 09:02:00,78.0,67.0,-100.00,SSW,203,18.0,-999.0,69,-99.99,,,-99.99,,2013-07-07 14:02:00,
2013-07-07 09:12:00,78.0,67.0,-100.00,SSW,203,18.0,-999.0,69,-99.99,,,-99.99,,2013-07-07 14:12:00,
2013-07-07 09:22:00,80.0,68.0,-100.00,SSW,203,17.0,-999.0,67,-99.99,,,-99.99,,2013-07-07 14:22:00,
2013-07-07 09:34:00,81.0,68.0,-100.00,SSW,203,18.0,-999.0,64,-99.99,,,-99.99,,2013-07-07 14:34:00,
2013-07-07 09:43:00,81.0,68.0,-100.00,SSW,203,18.0,-999.0,64,-99.99,,,-99.99,,2013-07-07 14:43:00,
2013-07-07 09:53:00,82.0,68.0,-100.00,SSW,203,21.0,-999.0,62,-99.99,,,-99.99,,2013-07-07 14:53:00,
2013-07-07 10:11:00,83.0,68.0,-100.00,SSW,203,20.0,-999.0,60,-99.99,,,-99.99,,2013-07-07 15:11:00,
2013-07-07 10:34:00,86.0,69.0,-100.00,SW,225,18.0,-999.0,56,-99.99,,,-99.99,,2013-07-07 15:34:00,
2013-07-07 10:43:00,86.0,69.0,-100.00,SW,225,18.0,-999.0,56,-99.99,,,-99.99,,2013-07-07 15:43:00,
2013-07-07 11:43:00,90.0,68.0,-100.00,SW,225,18.0,-999.0,48,-99.99,,,-99.99,,2013-07-07 16:43:00,
2013-07-07 12:12:00,90.0,67.0,-100.00,SW,225,19.0,-999.0,46,-99.99,,,-99.99,,2013-07-07 17:12:00,
2013-07-07 12:43:00,93.0,68.0,-100.00,SW,225,16.0,-999.0,44,-99.99,,,-99.99,,2013-07-07 17:43:00,
2013-07-07 17:53:00,100.0,68.0,-100.00,SW,225,13.0,-999.0,36,-99.99,,,-99.99,,2013-07-07 22:53:00,
2013-07-07 18:02:00,97.0,67.0,-100.00,SW,225,9.0,-999.0,38,-99.99,,,-99.99,,2013-07-07 23:02:00,
2013-07-07 18:12:00,97.0,67.0,-100.00,SW,225,9.0,-999.0,38,-99.99,,,-99.99,,2013-07-07 23:12:00,
2013-07-07 18:22:00,94.0,67.0,-100.00,SW,225,9.0,-999.0,42,-99.99,,,-99.99,,2013-07-07 23:22:00,
2013-07-07 18:33:00,92.0,70.0,-100.00,South,180,6.0,-999.0,48,-99.99,,,-99.99,,2013-07-07 23:33:00,
2013-07-07 18:43:00,92.0,70.0,-100.00,South,180,6.0,-999.0,48,-99.99,,,-99.99,,2013-07-07 23:43:00,
2013-07-07 18:52:00,92.0,71.0,-100.00,SSW,203,4.0,-999.0,50,-99.99,,,-99.99,,2013-07-07 23:52:00,
2013-07-07 19:01:00,92.0,72.0,-100.00,SSW,203,4.0,-999.0,52,-99.99,,,-99.99,,2013-07-08 00:01:00,
2013-07-07 19:11:00,92.0,72.0,-100.00,SSW,203,4.0,-999.0,52,-99.99,,,-99.99,,2013-07-08 00:11:00,
2013-07-07 19:22:00,93.0,73.0,-100.00,SSE,158,5.0,-999.0,52,-99.99,,,-99.99,,2013-07-08 00:22:00,
2013-07-07 19:33:00,93.0,73.0,-100.00,SSE,158,5.0,-999.0,53,-99.99,,,-99.99,,2013-07-08 00:33:00,
2013-07-07 19:43:00,93.0,73.0,-100.00,SSE,158,5.0,-999.0,53,-99.99,,,-99.99,,2013-07-08 00:43:00,
2013-07-07 19:53:00,93.0,74.0,-100.00,SSE,158,4.0,-999.0,53,-99.99,,,-99.99,,2013-07-08 00:53:00,
2013-07-07 20:01:00,94.0,75.0,-100.00,SE,135,4.0,-999.0,55,-99.99,,,-99.99,,2013-07-08 01:01:00,
2013-07-07 20:11:00,94.0,75.0,-100.00,SE,135,4.0,-999.0,55,-99.99,,,-99.99,,2013-07-08 01:11:00,
2013-07-07 20:22:00,93.0,77.0,-100.00,SSE,158,5.0,-999.0,60,-99.99,,,-99.99,,2013-07-08 01:22:00,
2013-07-07 20:32:00,91.0,74.0,-100.00,SSE,158,6.0,-999.0,57,-99.99,,,-99.99,,2013-07-08 01:32:00,
2013-07-07 20:43:00,91.0,74.0,-100.00,SSE,158,6.0,-999.0,57,-99.99,,,-99.99,,2013-07-08 01:43:00,
2013-07-07 20:52:00,89.0,72.0,-100.00,SE,135,5.0,-999.0,58,-99.99,,,-99.99,,2013-07-08 01:52:00,
2013-07-07 21:02:00,86.0,73.0,-100.00,SSE,158,6.0,-999.0,65,-99.99,,,-99.99,,2013-07-08 02:02:00,
2013-07-07 21:11:00,86.0,73.0,-100.00,SSE,158,6.0,-999.0,65,-99.99,,,-99.99,,2013-07-08 02:11:00,
2013-07-07 21:22:00,83.0,73.0,-100.00,SSE,158,7.0,-999.0,71,-99.99,,,-99.99,,2013-07-08 02:22:00,
2013-07-07 21:33:00,81.0,73.0,-100.00,SSE,158,6.0,-999.0,75,-99.99,,,-99.99,,2013-07-08 02:33:00,
2013-07-07 21:42:00,81.0,73.0,-100.00,SSE,158,6.0,-999.0,75,-99.99,,,-99.99,,2013-07-08 02:42:00,
2013-07-07 21:52:00,81.0,73.0,-100.00,SE,135,8.0,-999.0,78,-99.99,,,-99.99,,2013-07-08 02:52:00,
2013-07-07 22:01:00,80.0,74.0,-100.00,SE,135,7.0,-999.0,80,-99.99,,,-99.99,,2013-07-08 03:01:00,
2013-07-07 22:12:00,80.0,74.0,-100.00,SE,135,7.0,-999.0,80,-99.99,,,-99.99,,2013-07-08 03:12:00,
2013-07-07 22:23:00,80.0,74.0,-100.00,SSE,158,8.0,-999.0,81,-99.99,,,-99.99,,2013-07-08 03:23:00,
2013-07-07 22:34:00,80.0,74.0,-100.00,SE,135,7.0,-999.0,82,-99.99,,,-99.99,,2013-07-08 03:34:00,
2013-07-07 22:42:00,80.0,74.0,-100.00,SE,135,7.0,-999.0,82,-99.99,,,-99.99,,2013-07-08 03:42:00,
2013-07-07 22:52:00,79.0,73.0,-100.00,SE,135,7.0,-999.0,82,-99.99,,,-99.99,,2013-07-08 03:52:00,
2013-07-07 23:02:00,78.0,73.0,-100.00,SSE,158,7.0,-999.0,84,-99.99,,,-99.99,,2013-07-08 04:02:00,
2013-07-07 23:11:00,78.0,73.0,-100.00,SSE,158,7.0,-999.0,84,-99.99,,,-99.99,,2013-07-08 04:11:00,
2013-07-07 23:22:00,78.0,72.0,-100.00,SSE,158,7.0,-999.0,82,-99.99,,,-99.99,,2013-07-08 04:22:00,
2013-07-07 23:33:00,80.0,71.0,-100.00,South,180,7.0,-999.0,74,-99.99,,,-99.99,,2013-07-08 04:33:00,
2013-07-07 23:42:00,80.0,71.0,-100.00,South,180,7.0,-999.0,74,-99.99,,,-99.99,,2013-07-08 04:42:00,
2013-07-07 23:53:00,78.0,70.0,-100.00,South,180,8.0,-999.0,75,-99.99,,,-99.99,,2013-07-08 04:53:00,